sensor_id;sensor_type;location;lat;lon;timestamp;P1;durP1;ratioP1;P2;durP2;ratioP2
53453;SDS011;49404;50.472;6.954;2024-02-26T05:35:17;0.15;;;0.15;;
53453;SDS011;49404;50.472;6.954;2024-02-26T05:37:43;0.30;;;0.20;;
53453;SDS011;49404;50.472;6.954;2024-02-26T05:40:09;0.73;;;0.20;;
53453;SDS011;49404;50.472;6.954;2024-02-26T05:42:35;0.32;;;0.20;;
53453;SDS011;49404;50.472;6.954;2024-02-26T05:45:01;0.22;;;0.20;;
53453;SDS011;49404;50.472;6.954;2024-02-26T05:47:31;0.20;;;0.20;;
53453;SDS011;49404;50.472;6.954;2024-02-26T05:49:57;1.02;;;0.10;;
53453;SDS011;49404;50.472;6.954;2024-02-26T05:52:25;1.55;;;0.20;;
53453;SDS011;49404;50.472;6.954;2024-02-26T05:54:52;0.20;;;0.20;;
53453;SDS011;49404;50.472;6.954;2024-02-26T05:57:18;6.28;;;0.80;;
53453;SDS011;49404;50.472;6.954;2024-02-26T05:59:44;4.90;;;0.95;;
53453;SDS011;49404;50.472;6.954;2024-02-26T06:02:10;9.73;;;0.70;;
53453;SDS011;49404;50.472;6.954;2024-02-26T06:04:36;2.55;;;0.93;;
53453;SDS011;49404;50.472;6.954;2024-02-26T06:07:02;4.07;;;0.65;;
53453;SDS011;49404;50.472;6.954;2024-02-26T06:09:28;2.80;;;0.60;;
53453;SDS011;49404;50.472;6.954;2024-02-26T06:11:54;1.80;;;0.57;;
53453;SDS011;49404;50.472;6.954;2024-02-26T06:14:20;1.52;;;0.50;;
53453;SDS011;49404;50.472;6.954;2024-02-26T06:16:46;1.67;;;0.50;;
53453;SDS011;49404;50.472;6.954;2024-02-26T06:19:13;2.03;;;0.50;;
53453;SDS011;49404;50.472;6.954;2024-02-26T06:21:39;1.95;;;0.50;;
53453;SDS011;49404;50.472;6.954;2024-02-26T06:24:05;2.30;;;0.60;;
53453;SDS011;49404;50.472;6.954;2024-02-26T06:26:31;3.38;;;0.40;;
53453;SDS011;49404;50.472;6.954;2024-02-26T06:28:58;1.17;;;0.43;;
53453;SDS011;49404;50.472;6.954;2024-02-26T06:31:24;1.38;;;0.40;;
53453;SDS011;49404;50.472;6.954;2024-02-26T06:33:52;0.98;;;0.40;;
53453;SDS011;49404;50.472;6.954;2024-02-26T06:36:18;1.50;;;0.40;;
53453;SDS011;49404;50.472;6.954;2024-02-26T06:38:44;1.55;;;0.50;;
53453;SDS011;49404;50.472;6.954;2024-02-26T06:41:10;7.47;;;0.50;;
53453;SDS011;49404;50.472;6.954;2024-02-26T06:43:37;1.23;;;0.40;;
53453;SDS011;49404;50.472;6.954;2024-02-26T06:46:03;2.05;;;0.40;;
53453;SDS011;49404;50.472;6.954;2024-02-26T06:48:29;1.65;;;0.50;;
53453;SDS011;49404;50.472;6.954;2024-02-26T06:50:55;2.63;;;0.40;;
53453;SDS011;49404;50.472;6.954;2024-02-26T06:53:21;0.93;;;0.30;;
53453;SDS011;49404;50.472;6.954;2024-02-26T06:55:47;1.48;;;0.30;;
53453;SDS011;49404;50.472;6.954;2024-02-26T06:58:15;0.77;;;0.40;;
53453;SDS011;49404;50.472;6.954;2024-02-26T07:00:41;0.85;;;0.40;;
53453;SDS011;49404;50.472;6.954;2024-02-26T07:03:07;0.85;;;0.30;;
53453;SDS011;49404;50.472;6.954;2024-02-26T07:05:33;0.77;;;0.30;;
53453;SDS011;49404;50.472;6.954;2024-02-26T07:07:59;1.33;;;0.35;;
53453;SDS011;49404;50.472;6.954;2024-02-26T07:10:25;1.38;;;0.40;;
53453;SDS011;49404;50.472;6.954;2024-02-26T07:12:51;0.73;;;0.47;;
53453;SDS011;49404;50.472;6.954;2024-02-26T07:15:17;0.80;;;0.30;;
53453;SDS011;49404;50.472;6.954;2024-02-26T07:17:43;1.35;;;0.40;;
53453;SDS011;49404;50.472;6.954;2024-02-26T07:20:12;0.65;;;0.40;;
53453;SDS011;49404;50.472;6.954;2024-02-26T07:22:39;0.38;;;0.30;;
53453;SDS011;49404;50.472;6.954;2024-02-26T07:25:07;0.80;;;0.30;;
53453;SDS011;49404;50.472;6.954;2024-02-26T07:27:33;0.93;;;0.35;;
53453;SDS011;49404;50.472;6.954;2024-02-26T07:29:59;0.85;;;0.30;;
53453;SDS011;49404;50.472;6.954;2024-02-26T07:32:25;0.75;;;0.30;;
53453;SDS011;49404;50.472;6.954;2024-02-26T07:34:51;0.43;;;0.25;;
53453;SDS011;49404;50.472;6.954;2024-02-26T07:37:17;0.30;;;0.20;;
53453;SDS011;49404;50.472;6.954;2024-02-26T07:39:43;1.48;;;0.40;;
53453;SDS011;49404;50.472;6.954;2024-02-26T07:42:09;0.43;;;0.30;;
53453;SDS011;49404;50.472;6.954;2024-02-26T07:44:36;0.55;;;0.30;;
53453;SDS011;49404;50.472;6.954;2024-02-26T07:47:02;1.65;;;0.40;;
53453;SDS011;49404;50.472;6.954;2024-02-26T07:49:28;0.93;;;0.40;;
53453;SDS011;49404;50.472;6.954;2024-02-26T07:51:54;1.33;;;0.30;;
53453;SDS011;49404;50.472;6.954;2024-02-26T07:54:22;0.65;;;0.28;;
53453;SDS011;49404;50.472;6.954;2024-02-26T07:56:48;0.93;;;0.32;;
53453;SDS011;49404;50.472;6.954;2024-02-26T07:59:14;0.50;;;0.30;;
53453;SDS011;49404;50.472;6.954;2024-02-26T08:01:40;0.50;;;0.30;;
53453;SDS011;49404;50.472;6.954;2024-02-26T08:04:06;0.98;;;0.30;;
53453;SDS011;49404;50.472;6.954;2024-02-26T08:06:32;0.50;;;0.30;;
53453;SDS011;49404;50.472;6.954;2024-02-26T08:08:58;0.30;;;0.20;;
53453;SDS011;49404;50.472;6.954;2024-02-26T08:11:24;0.30;;;0.20;;
53453;SDS011;49404;50.472;6.954;2024-02-26T08:13:50;0.55;;;0.30;;
53453;SDS011;49404;50.472;6.954;2024-02-26T08:16:16;0.30;;;0.30;;
53453;SDS011;49404;50.472;6.954;2024-02-26T08:18:42;0.73;;;0.30;;
53453;SDS011;49404;50.472;6.954;2024-02-26T08:21:08;0.65;;;0.30;;
53453;SDS011;49404;50.472;6.954;2024-02-26T08:23:34;0.47;;;0.22;;
53453;SDS011;49404;50.472;6.954;2024-02-26T08:26:00;0.70;;;0.22;;
53453;SDS011;49404;50.472;6.954;2024-02-26T08:28:28;0.32;;;0.20;;
53453;SDS011;49404;50.472;6.954;2024-02-26T08:30:54;1.48;;;0.25;;
53453;SDS011;49404;50.472;6.954;2024-02-26T08:33:20;0.35;;;0.30;;
53453;SDS011;49404;50.472;6.954;2024-02-26T08:35:46;1.73;;;0.22;;
53453;SDS011;49404;50.472;6.954;2024-02-26T08:38:12;0.38;;;0.20;;
53453;SDS011;49404;50.472;6.954;2024-02-26T08:40:38;0.30;;;0.30;;
53453;SDS011;49404;50.472;6.954;2024-02-26T08:43:04;0.68;;;0.40;;
53453;SDS011;49404;50.472;6.954;2024-02-26T08:45:30;1.15;;;0.30;;
53453;SDS011;49404;50.472;6.954;2024-02-26T08:47:56;0.85;;;0.30;;
53453;SDS011;49404;50.472;6.954;2024-02-26T08:50:24;0.30;;;0.20;;
53453;SDS011;49404;50.472;6.954;2024-02-26T08:52:50;1.20;;;0.40;;
53453;SDS011;49404;50.472;6.954;2024-02-26T08:55:18;0.70;;;0.40;;
53453;SDS011;49404;50.472;6.954;2024-02-26T08:57:44;1.77;;;0.52;;
53453;SDS011;49404;50.472;6.954;2024-02-26T09:00:10;1.10;;;0.50;;
53453;SDS011;49404;50.472;6.954;2024-02-26T09:02:37;0.47;;;0.30;;
53453;SDS011;49404;50.472;6.954;2024-02-26T09:05:11;0.60;;;0.30;;
53453;SDS011;49404;50.472;6.954;2024-02-26T09:07:37;1.38;;;0.45;;
53453;SDS011;49404;50.472;6.954;2024-02-26T09:10:03;1.88;;;0.40;;
53453;SDS011;49404;50.472;6.954;2024-02-26T09:12:29;0.50;;;0.30;;
53453;SDS011;49404;50.472;6.954;2024-02-26T09:14:55;0.98;;;0.52;;
53453;SDS011;49404;50.472;6.954;2024-02-26T09:17:22;0.90;;;0.40;;
53453;SDS011;49404;50.472;6.954;2024-02-26T09:19:48;1.63;;;0.60;;
53453;SDS011;49404;50.472;6.954;2024-02-26T09:22:14;0.85;;;0.50;;
53453;SDS011;49404;50.472;6.954;2024-02-26T09:24:40;1.85;;;0.50;;
53453;SDS011;49404;50.472;6.954;2024-02-26T09:27:06;0.90;;;0.40;;
53453;SDS011;49404;50.472;6.954;2024-02-26T09:29:35;0.60;;;0.30;;
53453;SDS011;49404;50.472;6.954;2024-02-26T09:32:01;1.25;;;0.32;;
53453;SDS011;49404;50.472;6.954;2024-02-26T09:34:27;1.25;;;0.40;;
53453;SDS011;49404;50.472;6.954;2024-02-26T09:36:53;2.42;;;0.50;;
53453;SDS011;49404;50.472;6.954;2024-02-26T09:39:19;0.65;;;0.40;;
53453;SDS011;49404;50.472;6.954;2024-02-26T09:41:47;0.60;;;0.40;;
53453;SDS011;49404;50.472;6.954;2024-02-26T09:44:15;6.38;;;0.38;;
53453;SDS011;49404;50.472;6.954;2024-02-26T09:46:44;0.52;;;0.40;;
53453;SDS011;49404;50.472;6.954;2024-02-26T09:49:10;1.20;;;0.40;;
53453;SDS011;49404;50.472;6.954;2024-02-26T09:51:37;1.02;;;0.40;;
53453;SDS011;49404;50.472;6.954;2024-02-26T09:54:04;0.40;;;0.40;;
53453;SDS011;49404;50.472;6.954;2024-02-26T09:56:32;1.30;;;0.40;;
53453;SDS011;49404;50.472;6.954;2024-02-26T09:58:59;1.02;;;0.40;;
53453;SDS011;49404;50.472;6.954;2024-02-26T10:01:25;0.63;;;0.30;;
53453;SDS011;49404;50.472;6.954;2024-02-26T10:03:54;0.82;;;0.40;;
53453;SDS011;49404;50.472;6.954;2024-02-26T10:06:21;0.75;;;0.40;;
53453;SDS011;49404;50.472;6.954;2024-02-26T10:08:47;0.88;;;0.40;;
53453;SDS011;49404;50.472;6.954;2024-02-26T10:11:13;0.60;;;0.35;;
53453;SDS011;49404;50.472;6.954;2024-02-26T10:13:40;0.63;;;0.32;;
53453;SDS011;49404;50.472;6.954;2024-02-26T10:16:06;1.08;;;0.40;;
53453;SDS011;49404;50.472;6.954;2024-02-26T10:18:46;0.98;;;0.50;;
53453;SDS011;49404;50.472;6.954;2024-02-26T10:21:12;0.60;;;0.22;;
53453;SDS011;49404;50.472;6.954;2024-02-26T10:23:40;0.60;;;0.30;;
53453;SDS011;49404;50.472;6.954;2024-02-26T10:26:08;0.30;;;0.30;;
53453;SDS011;49404;50.472;6.954;2024-02-26T10:28:34;2.38;;;0.30;;
53453;SDS011;49404;50.472;6.954;2024-02-26T10:31:00;0.40;;;0.30;;
53453;SDS011;49404;50.472;6.954;2024-02-26T10:33:26;1.10;;;0.30;;
53453;SDS011;49404;50.472;6.954;2024-02-26T10:35:52;0.40;;;0.30;;
53453;SDS011;49404;50.472;6.954;2024-02-26T10:38:19;0.75;;;0.30;;
53453;SDS011;49404;50.472;6.954;2024-02-26T10:40:46;0.45;;;0.30;;
53453;SDS011;49404;50.472;6.954;2024-02-26T10:43:12;1.05;;;0.40;;
53453;SDS011;49404;50.472;6.954;2024-02-26T10:45:39;0.43;;;0.30;;
53453;SDS011;49404;50.472;6.954;2024-02-26T10:48:12;0.43;;;0.30;;
53453;SDS011;49404;50.472;6.954;2024-02-26T10:50:38;1.08;;;0.30;;
53453;SDS011;49404;50.472;6.954;2024-02-26T10:53:05;0.25;;;0.20;;
53453;SDS011;49404;50.472;6.954;2024-02-26T10:55:32;0.77;;;0.30;;
53453;SDS011;49404;50.472;6.954;2024-02-26T10:58:00;0.28;;;0.20;;
53453;SDS011;49404;50.472;6.954;2024-02-26T11:00:27;0.20;;;0.20;;
53453;SDS011;49404;50.472;6.954;2024-02-26T11:02:54;0.28;;;0.28;;
53453;SDS011;49404;50.472;6.954;2024-02-26T11:05:23;0.22;;;0.20;;
53453;SDS011;49404;50.472;6.954;2024-02-26T11:07:49;1.50;;;0.20;;
53453;SDS011;49404;50.472;6.954;2024-02-26T11:10:16;0.30;;;0.30;;
53453;SDS011;49404;50.472;6.954;2024-02-26T11:12:42;0.30;;;0.30;;
53453;SDS011;49404;50.472;6.954;2024-02-26T11:15:08;0.45;;;0.20;;
53453;SDS011;49404;50.472;6.954;2024-02-26T11:17:35;0.20;;;0.20;;
53453;SDS011;49404;50.472;6.954;2024-02-26T11:20:03;0.30;;;0.30;;
53453;SDS011;49404;50.472;6.954;2024-02-26T11:22:30;0.65;;;0.30;;
53453;SDS011;49404;50.472;6.954;2024-02-26T11:24:57;0.30;;;0.20;;
53453;SDS011;49404;50.472;6.954;2024-02-26T11:27:44;0.43;;;0.30;;
53453;SDS011;49404;50.472;6.954;2024-02-26T11:30:12;1.58;;;0.30;;
53453;SDS011;49404;50.472;6.954;2024-02-26T11:32:39;0.52;;;0.28;;
53453;SDS011;49404;50.472;6.954;2024-02-26T11:35:05;0.32;;;0.20;;
53453;SDS011;49404;50.472;6.954;2024-02-26T11:37:32;0.40;;;0.20;;
53453;SDS011;49404;50.472;6.954;2024-02-26T11:39:59;0.20;;;0.20;;
53453;SDS011;49404;50.472;6.954;2024-02-26T11:42:28;0.20;;;0.17;;
53453;SDS011;49404;50.472;6.954;2024-02-26T11:44:55;0.40;;;0.20;;
53453;SDS011;49404;50.472;6.954;2024-02-26T11:47:25;0.82;;;0.30;;
53453;SDS011;49404;50.472;6.954;2024-02-26T11:49:52;0.28;;;0.20;;
53453;SDS011;49404;50.472;6.954;2024-02-26T11:52:18;0.20;;;0.20;;
53453;SDS011;49404;50.472;6.954;2024-02-26T11:57:29;0.20;;;0.20;;
53453;SDS011;49404;50.472;6.954;2024-02-26T12:00:10;0.28;;;0.10;;
53453;SDS011;49404;50.472;6.954;2024-02-26T12:05:20;0.25;;;0.20;;
53453;SDS011;49404;50.472;6.954;2024-02-26T12:10:28;0.30;;;0.30;;
53453;SDS011;49404;50.472;6.954;2024-02-26T12:13:29;0.20;;;0.20;;
53453;SDS011;49404;50.472;6.954;2024-02-26T12:16:42;0.88;;;0.30;;
53453;SDS011;49404;50.472;6.954;2024-02-26T12:19:10;0.30;;;0.30;;
53453;SDS011;49404;50.472;6.954;2024-02-26T12:21:36;0.32;;;0.30;;
53453;SDS011;49404;50.472;6.954;2024-02-26T12:24:09;2.53;;;0.20;;
53453;SDS011;49404;50.472;6.954;2024-02-26T12:26:36;8.45;;;0.47;;
53453;SDS011;49404;50.472;6.954;2024-02-26T12:29:02;2.72;;;0.30;;
53453;SDS011;49404;50.472;6.954;2024-02-26T12:31:28;2.58;;;0.38;;
53453;SDS011;49404;50.472;6.954;2024-02-26T12:33:56;1.25;;;0.40;;
53453;SDS011;49404;50.472;6.954;2024-02-26T12:36:22;0.30;;;0.30;;
53453;SDS011;49404;50.472;6.954;2024-02-26T12:38:48;2.08;;;0.35;;
53453;SDS011;49404;50.472;6.954;2024-02-26T12:41:14;0.98;;;0.40;;
53453;SDS011;49404;50.472;6.954;2024-02-26T12:43:41;0.93;;;0.30;;
53453;SDS011;49404;50.472;6.954;2024-02-26T12:46:07;0.30;;;0.30;;
53453;SDS011;49404;50.472;6.954;2024-02-26T12:48:33;0.68;;;0.40;;
53453;SDS011;49404;50.472;6.954;2024-02-26T12:50:59;0.50;;;0.40;;
53453;SDS011;49404;50.472;6.954;2024-02-26T12:53:26;0.63;;;0.30;;
53453;SDS011;49404;50.472;6.954;2024-02-26T12:55:55;1.15;;;0.30;;
53453;SDS011;49404;50.472;6.954;2024-02-26T12:58:21;0.82;;;0.40;;
53453;SDS011;49404;50.472;6.954;2024-02-26T13:00:50;0.20;;;0.20;;
53453;SDS011;49404;50.472;6.954;2024-02-26T13:03:19;0.50;;;0.25;;
53453;SDS011;49404;50.472;6.954;2024-02-26T13:05:45;0.20;;;0.20;;
53453;SDS011;49404;50.472;6.954;2024-02-26T13:08:18;0.30;;;0.20;;
53453;SDS011;49404;50.472;6.954;2024-02-26T13:10:45;1.67;;;0.30;;
53453;SDS011;49404;50.472;6.954;2024-02-26T13:13:12;0.55;;;0.30;;
53453;SDS011;49404;50.472;6.954;2024-02-26T13:15:40;0.50;;;0.30;;
53453;SDS011;49404;50.472;6.954;2024-02-26T13:18:10;0.30;;;0.30;;
53453;SDS011;49404;50.472;6.954;2024-02-26T13:20:37;0.85;;;0.30;;
53453;SDS011;49404;50.472;6.954;2024-02-26T13:23:05;0.30;;;0.20;;
53453;SDS011;49404;50.472;6.954;2024-02-26T13:25:32;0.28;;;0.25;;
53453;SDS011;49404;50.472;6.954;2024-02-26T13:28:31;1.10;;;0.20;;
53453;SDS011;49404;50.472;6.954;2024-02-26T13:30:53;0.70;;;0.20;;
53453;SDS011;49404;50.472;6.954;2024-02-26T13:33:21;0.50;;;0.30;;
53453;SDS011;49404;50.472;6.954;2024-02-26T13:35:47;0.88;;;0.30;;
53453;SDS011;49404;50.472;6.954;2024-02-26T13:38:13;0.30;;;0.30;;
53453;SDS011;49404;50.472;6.954;2024-02-26T13:40:40;0.40;;;0.22;;
53453;SDS011;49404;50.472;6.954;2024-02-26T13:43:06;0.47;;;0.25;;
53453;SDS011;49404;50.472;6.954;2024-02-26T13:45:35;0.32;;;0.30;;
53453;SDS011;49404;50.472;6.954;2024-02-26T13:48:03;0.55;;;0.30;;
53453;SDS011;49404;50.472;6.954;2024-02-26T13:50:29;1.67;;;0.30;;
53453;SDS011;49404;50.472;6.954;2024-02-26T13:52:55;0.68;;;0.38;;
53453;SDS011;49404;50.472;6.954;2024-02-26T13:55:23;1.10;;;0.30;;
53453;SDS011;49404;50.472;6.954;2024-02-26T13:57:51;0.70;;;0.30;;
53453;SDS011;49404;50.472;6.954;2024-02-26T14:00:18;0.50;;;0.20;;
53453;SDS011;49404;50.472;6.954;2024-02-26T14:02:45;0.20;;;0.20;;
53453;SDS011;49404;50.472;6.954;2024-02-26T14:05:11;5.10;;;0.20;;
53453;SDS011;49404;50.472;6.954;2024-02-26T14:07:37;1.05;;;0.20;;
53453;SDS011;49404;50.472;6.954;2024-02-26T14:10:03;1.13;;;0.20;;
53453;SDS011;49404;50.472;6.954;2024-02-26T14:12:29;0.20;;;0.20;;
53453;SDS011;49404;50.472;6.954;2024-02-26T14:14:55;0.25;;;0.20;;
53453;SDS011;49404;50.472;6.954;2024-02-26T14:17:21;0.20;;;0.20;;
53453;SDS011;49404;50.472;6.954;2024-02-26T14:19:47;0.20;;;0.20;;
53453;SDS011;49404;50.472;6.954;2024-02-26T14:22:14;0.13;;;0.10;;
53453;SDS011;49404;50.472;6.954;2024-02-26T14:24:41;0.20;;;0.20;;
53453;SDS011;49404;50.472;6.954;2024-02-26T14:27:08;0.20;;;0.20;;
53453;SDS011;49404;50.472;6.954;2024-02-26T14:29:34;0.20;;;0.20;;
53453;SDS011;49404;50.472;6.954;2024-02-26T14:32:01;0.30;;;0.20;;
53453;SDS011;49404;50.472;6.954;2024-02-26T14:34:28;0.10;;;0.10;;
53453;SDS011;49404;50.472;6.954;2024-02-26T14:36:54;0.57;;;0.20;;
53453;SDS011;49404;50.472;6.954;2024-02-26T14:39:20;0.20;;;0.20;;
53453;SDS011;49404;50.472;6.954;2024-02-26T14:41:46;0.77;;;0.25;;
53453;SDS011;49404;50.472;6.954;2024-02-26T14:44:12;1.10;;;0.10;;
53453;SDS011;49404;50.472;6.954;2024-02-26T14:46:38;0.40;;;0.20;;
53453;SDS011;49404;50.472;6.954;2024-02-26T14:49:04;0.17;;;0.17;;
53453;SDS011;49404;50.472;6.954;2024-02-26T14:51:30;0.10;;;0.10;;
53453;SDS011;49404;50.472;6.954;2024-02-26T14:53:56;0.47;;;0.30;;
53453;SDS011;49404;50.472;6.954;2024-02-26T14:56:26;0.20;;;0.20;;
53453;SDS011;49404;50.472;6.954;2024-02-26T14:58:53;0.17;;;0.17;;
53453;SDS011;49404;50.472;6.954;2024-02-26T15:01:19;0.20;;;0.20;;
53453;SDS011;49404;50.472;6.954;2024-02-26T15:03:45;0.10;;;0.10;;
53453;SDS011;49404;50.472;6.954;2024-02-26T15:06:11;0.40;;;0.20;;
53453;SDS011;49404;50.472;6.954;2024-02-26T15:08:37;0.20;;;0.20;;
53453;SDS011;49404;50.472;6.954;2024-02-26T15:11:03;0.28;;;0.20;;
53453;SDS011;49404;50.472;6.954;2024-02-26T15:13:29;0.20;;;0.20;;
53453;SDS011;49404;50.472;6.954;2024-02-26T15:15:55;0.20;;;0.20;;
53453;SDS011;49404;50.472;6.954;2024-02-26T15:18:21;0.60;;;0.35;;
53453;SDS011;49404;50.472;6.954;2024-02-26T15:20:47;0.25;;;0.22;;
53453;SDS011;49404;50.472;6.954;2024-02-26T15:23:13;0.20;;;0.20;;
53453;SDS011;49404;50.472;6.954;2024-02-26T15:25:40;0.10;;;0.10;;
53453;SDS011;49404;50.472;6.954;2024-02-26T15:28:06;1.00;;;0.20;;
53453;SDS011;49404;50.472;6.954;2024-02-26T15:30:34;0.85;;;0.50;;
53453;SDS011;49404;50.472;6.954;2024-02-26T15:33:00;0.40;;;0.30;;
53453;SDS011;49404;50.472;6.954;2024-02-26T15:35:26;1.08;;;0.30;;
53453;SDS011;49404;50.472;6.954;2024-02-26T15:37:53;0.90;;;0.20;;
53453;SDS011;49404;50.472;6.954;2024-02-26T15:40:19;0.75;;;0.30;;
53453;SDS011;49404;50.472;6.954;2024-02-26T15:42:46;0.93;;;0.30;;
53453;SDS011;49404;50.472;6.954;2024-02-26T15:45:12;0.45;;;0.20;;
53453;SDS011;49404;50.472;6.954;2024-02-26T15:47:38;0.50;;;0.30;;
53453;SDS011;49404;50.472;6.954;2024-02-26T15:50:06;0.30;;;0.30;;
53453;SDS011;49404;50.472;6.954;2024-02-26T15:52:32;0.52;;;0.30;;
53453;SDS011;49404;50.472;6.954;2024-02-26T15:54:58;0.28;;;0.28;;
53453;SDS011;49404;50.472;6.954;2024-02-26T15:57:24;0.20;;;0.20;;
53453;SDS011;49404;50.472;6.954;2024-02-26T15:59:50;0.68;;;0.17;;
53453;SDS011;49404;50.472;6.954;2024-02-26T16:02:18;0.77;;;0.20;;
53453;SDS011;49404;50.472;6.954;2024-02-26T16:04:46;0.90;;;0.20;;
53453;SDS011;49404;50.472;6.954;2024-02-26T16:07:26;0.30;;;0.20;;
53453;SDS011;49404;50.472;6.954;2024-02-26T16:09:54;0.43;;;0.20;;
53453;SDS011;49404;50.472;6.954;2024-02-26T16:12:25;0.85;;;0.20;;
53453;SDS011;49404;50.472;6.954;2024-02-26T16:14:55;0.30;;;0.30;;
53453;SDS011;49404;50.472;6.954;2024-02-26T16:17:24;1.20;;;0.30;;
53453;SDS011;49404;50.472;6.954;2024-02-26T16:19:51;1.75;;;0.30;;
53453;SDS011;49404;50.472;6.954;2024-02-26T16:22:17;0.30;;;0.20;;
53453;SDS011;49404;50.472;6.954;2024-02-26T16:24:43;0.40;;;0.30;;
53453;SDS011;49404;50.472;6.954;2024-02-26T16:27:10;1.48;;;0.50;;
53453;SDS011;49404;50.472;6.954;2024-02-26T16:29:36;1.00;;;0.50;;
53453;SDS011;49404;50.472;6.954;2024-02-26T16:32:03;1.67;;;0.50;;
53453;SDS011;49404;50.472;6.954;2024-02-26T16:34:29;0.82;;;0.40;;
53453;SDS011;49404;50.472;6.954;2024-02-26T16:36:55;0.38;;;0.30;;
53453;SDS011;49404;50.472;6.954;2024-02-26T16:39:21;0.80;;;0.30;;
53453;SDS011;49404;50.472;6.954;2024-02-26T16:41:47;0.45;;;0.30;;
53453;SDS011;49404;50.472;6.954;2024-02-26T16:44:13;0.50;;;0.30;;
53453;SDS011;49404;50.472;6.954;2024-02-26T16:46:39;0.80;;;0.40;;
53453;SDS011;49404;50.472;6.954;2024-02-26T16:49:05;1.17;;;0.30;;
53453;SDS011;49404;50.472;6.954;2024-02-26T16:51:31;1.17;;;0.40;;
53453;SDS011;49404;50.472;6.954;2024-02-26T16:53:57;0.88;;;0.40;;
53453;SDS011;49404;50.472;6.954;2024-02-26T16:56:23;0.43;;;0.30;;
53453;SDS011;49404;50.472;6.954;2024-02-26T16:58:49;0.95;;;0.50;;
53453;SDS011;49404;50.472;6.954;2024-02-26T17:01:15;0.50;;;0.30;;
53453;SDS011;49404;50.472;6.954;2024-02-26T17:03:41;0.63;;;0.50;;
53453;SDS011;49404;50.472;6.954;2024-02-26T17:06:07;1.45;;;1.10;;
53453;SDS011;49404;50.472;6.954;2024-02-26T17:08:33;0.65;;;0.57;;
53453;SDS011;49404;50.472;6.954;2024-02-26T17:11:01;0.50;;;0.40;;
53453;SDS011;49404;50.472;6.954;2024-02-26T17:13:26;2.00;;;1.23;;
53453;SDS011;49404;50.472;6.954;2024-02-26T17:15:55;1.25;;;0.52;;
53453;SDS011;49404;50.472;6.954;2024-02-26T17:18:21;0.77;;;0.77;;
53453;SDS011;49404;50.472;6.954;2024-02-26T17:20:47;1.17;;;0.60;;
53453;SDS011;49404;50.472;6.954;2024-02-26T17:23:14;0.70;;;0.43;;
53453;SDS011;49404;50.472;6.954;2024-02-26T17:25:40;0.60;;;0.43;;
53453;SDS011;49404;50.472;6.954;2024-02-26T17:28:07;0.63;;;0.40;;
53453;SDS011;49404;50.472;6.954;2024-02-26T17:30:36;0.77;;;0.40;;
53453;SDS011;49404;50.472;6.954;2024-02-26T17:33:03;0.52;;;0.40;;
53453;SDS011;49404;50.472;6.954;2024-02-26T17:35:29;0.30;;;0.30;;
53453;SDS011;49404;50.472;6.954;2024-02-26T17:37:55;0.95;;;0.45;;
53453;SDS011;49404;50.472;6.954;2024-02-26T17:40:22;0.50;;;0.40;;
53453;SDS011;49404;50.472;6.954;2024-02-26T17:42:48;0.50;;;0.30;;
53453;SDS011;49404;50.472;6.954;2024-02-26T17:45:14;0.50;;;0.38;;
53453;SDS011;49404;50.472;6.954;2024-02-26T17:47:42;0.60;;;0.45;;
53453;SDS011;49404;50.472;6.954;2024-02-26T17:50:09;0.38;;;0.20;;
53453;SDS011;49404;50.472;6.954;2024-02-26T17:52:35;0.55;;;0.40;;
53453;SDS011;49404;50.472;6.954;2024-02-26T17:55:02;0.40;;;0.30;;
53453;SDS011;49404;50.472;6.954;2024-02-26T17:57:28;0.40;;;0.30;;
53453;SDS011;49404;50.472;6.954;2024-02-26T17:59:54;0.35;;;0.30;;
53453;SDS011;49404;50.472;6.954;2024-02-26T18:05:24;0.60;;;0.30;;
53453;SDS011;49404;50.472;6.954;2024-02-26T18:07:50;0.32;;;0.30;;
53453;SDS011;49404;50.472;6.954;2024-02-26T18:10:17;0.50;;;0.30;;
53453;SDS011;49404;50.472;6.954;2024-02-26T18:12:44;0.30;;;0.30;;
53453;SDS011;49404;50.472;6.954;2024-02-26T18:15:13;1.25;;;0.30;;
53453;SDS011;49404;50.472;6.954;2024-02-26T18:17:39;0.52;;;0.30;;
53453;SDS011;49404;50.472;6.954;2024-02-26T18:20:06;0.30;;;0.30;;
53453;SDS011;49404;50.472;6.954;2024-02-26T18:22:33;1.17;;;0.30;;
53453;SDS011;49404;50.472;6.954;2024-02-26T18:25:00;0.50;;;0.30;;
53453;SDS011;49404;50.472;6.954;2024-02-26T18:27:26;0.50;;;0.30;;
53453;SDS011;49404;50.472;6.954;2024-02-26T18:29:52;0.35;;;0.30;;
53453;SDS011;49404;50.472;6.954;2024-02-26T18:32:19;0.57;;;0.40;;
53453;SDS011;49404;50.472;6.954;2024-02-26T18:34:45;0.55;;;0.35;;
53453;SDS011;49404;50.472;6.954;2024-02-26T18:37:11;0.40;;;0.35;;
53453;SDS011;49404;50.472;6.954;2024-02-26T18:39:37;0.47;;;0.30;;
53453;SDS011;49404;50.472;6.954;2024-02-26T18:42:03;0.50;;;0.40;;
53453;SDS011;49404;50.472;6.954;2024-02-26T18:44:30;0.20;;;0.20;;
53453;SDS011;49404;50.472;6.954;2024-02-26T18:46:56;0.35;;;0.20;;
53453;SDS011;49404;50.472;6.954;2024-02-26T18:49:22;0.85;;;0.30;;
53453;SDS011;49404;50.472;6.954;2024-02-26T18:51:50;0.30;;;0.30;;
53453;SDS011;49404;50.472;6.954;2024-02-26T18:54:15;0.38;;;0.30;;
53453;SDS011;49404;50.472;6.954;2024-02-26T18:56:41;0.20;;;0.20;;
53453;SDS011;49404;50.472;6.954;2024-02-26T18:59:08;0.95;;;0.30;;
53453;SDS011;49404;50.472;6.954;2024-02-26T19:01:36;0.40;;;0.30;;
53453;SDS011;49404;50.472;6.954;2024-02-26T19:04:03;2.13;;;0.32;;
53453;SDS011;49404;50.472;6.954;2024-02-26T19:06:29;0.43;;;0.28;;
53453;SDS011;49404;50.472;6.954;2024-02-26T19:08:57;0.52;;;0.30;;
53453;SDS011;49404;50.472;6.954;2024-02-26T19:11:23;1.95;;;0.30;;
53453;SDS011;49404;50.472;6.954;2024-02-26T19:13:49;1.13;;;0.30;;
53453;SDS011;49404;50.472;6.954;2024-02-26T19:16:17;0.43;;;0.32;;
53453;SDS011;49404;50.472;6.954;2024-02-26T19:18:43;1.08;;;0.30;;
53453;SDS011;49404;50.472;6.954;2024-02-26T19:21:09;0.98;;;0.25;;
53453;SDS011;49404;50.472;6.954;2024-02-26T19:23:35;0.30;;;0.30;;
53453;SDS011;49404;50.472;6.954;2024-02-26T19:26:01;0.43;;;0.22;;
53453;SDS011;49404;50.472;6.954;2024-02-26T19:28:27;0.30;;;0.25;;
53453;SDS011;49404;50.472;6.954;2024-02-26T19:30:53;0.60;;;0.30;;
53453;SDS011;49404;50.472;6.954;2024-02-26T19:33:19;1.30;;;0.28;;
53453;SDS011;49404;50.472;6.954;2024-02-26T19:35:46;0.45;;;0.38;;
53453;SDS011;49404;50.472;6.954;2024-02-26T19:38:13;0.38;;;0.30;;
53453;SDS011;49404;50.472;6.954;2024-02-26T19:40:42;1.02;;;0.20;;
53453;SDS011;49404;50.472;6.954;2024-02-26T19:43:09;0.57;;;0.20;;
53453;SDS011;49404;50.472;6.954;2024-02-26T19:45:35;0.57;;;0.30;;
53453;SDS011;49404;50.472;6.954;2024-02-26T19:48:01;0.30;;;0.20;;
53453;SDS011;49404;50.472;6.954;2024-02-26T19:50:27;0.32;;;0.25;;
53453;SDS011;49404;50.472;6.954;2024-02-26T19:52:53;0.68;;;0.40;;
53453;SDS011;49404;50.472;6.954;2024-02-26T19:55:19;0.52;;;0.40;;
53453;SDS011;49404;50.472;6.954;2024-02-26T19:57:47;0.57;;;0.30;;
53453;SDS011;49404;50.472;6.954;2024-02-26T20:00:13;0.40;;;0.30;;
53453;SDS011;49404;50.472;6.954;2024-02-26T20:02:39;0.75;;;0.30;;
53453;SDS011;49404;50.472;6.954;2024-02-26T20:05:06;0.82;;;0.38;;
53453;SDS011;49404;50.472;6.954;2024-02-26T20:07:32;0.20;;;0.20;;
53453;SDS011;49404;50.472;6.954;2024-02-26T20:09:58;1.15;;;0.32;;
53453;SDS011;49404;50.472;6.954;2024-02-26T20:12:25;0.60;;;0.30;;
53453;SDS011;49404;50.472;6.954;2024-02-26T20:14:52;0.43;;;0.30;;
53453;SDS011;49404;50.472;6.954;2024-02-26T20:17:18;0.30;;;0.20;;
53453;SDS011;49404;50.472;6.954;2024-02-26T20:19:45;1.58;;;0.32;;
53453;SDS011;49404;50.472;6.954;2024-02-26T20:22:11;0.52;;;0.30;;
53453;SDS011;49404;50.472;6.954;2024-02-26T20:24:38;0.75;;;0.38;;
53453;SDS011;49404;50.472;6.954;2024-02-26T20:27:05;0.73;;;0.30;;
53453;SDS011;49404;50.472;6.954;2024-02-26T20:29:31;0.30;;;0.30;;
53453;SDS011;49404;50.472;6.954;2024-02-26T20:31:58;0.30;;;0.30;;